PWSweather.com
Personal Weather Stations
Station Observations
IPODRAVI2
Croatia, Trnovec BartoloveckiHR

CroatiaTrnovec BartoloveckiHR

Lat: 46.2947, Lon: 16.3989

Elevation: 535

Station Type: Davis Vantage Pro2 plus

http://www.pljusak.com/trnovec1/wx.html

High Low Average
Temperature 32.6°F0.3°F 7.2°F-13.8°F 17.3°F-8.2°F
Dew Point 23.7°F-4.6°F 4.4°F-15.3°F 13.4°F-10.3°F
Winds 2.3 mph WSW3.7 mph WSW Calm Calm 0.3 mph 0.5 mph
Wind Gusts 5.8 mph9.3 mph -- 0.7 mph1.1 mph
Humidity 92% 68% 85%
Pressure 30.62 in1036.90 in 30.54 in1034.20 in -
Precipitation 0.00 in0.00 in - -
Hour Temp Dew Point Humidity Winds Wind Gusts Pressure Precip Precip Rate Daily Precip Total
12:00 AM 13.4°F-10.3°C 11.0°F-11.7°C 90% Calm Calm -- 30.62 in1036.9 mb - 0.00 in0.0 mm 0.00 in0.0 mm
12:10 AM 13.2°F-10.4°C 10.8°F-11.8°C 90% Calm Calm -- 30.61 in1036.6 mb - 0.00 in0.0 mm 0.00 in0.0 mm
12:15 AM 13.0°F-10.6°C 10.6°F-11.9°C 90% Calm Calm -- 30.61 in1036.6 mb - 0.00 in0.0 mm 0.00 in0.0 mm
12:20 AM 12.9°F-10.6°C 10.8°F-11.8°C 91% Calm Calm -- 30.61 in1036.6 mb - 0.00 in0.0 mm 0.00 in0.0 mm
12:25 AM 12.8°F-10.7°C 10.7°F-11.8°C 91% Calm Calm -- 30.61 in1036.6 mb - 0.00 in0.0 mm 0.00 in0.0 mm
12:30 AM 12.7°F-10.7°C 10.6°F-11.9°C 91% Calm Calm -- 30.61 in1036.6 mb - 0.00 in0.0 mm 0.00 in0.0 mm
12:35 AM 12.6°F-10.8°C 10.5°F-11.9°C 91% Calm Calm -- 30.61 in1036.6 mb - 0.00 in0.0 mm 0.00 in0.0 mm
12:40 AM 12.5°F-10.8°C 10.4°F-12.0°C 91% Calm Calm -- 30.61 in1036.6 mb - 0.00 in0.0 mm 0.00 in0.0 mm
12:45 AM 12.4°F-10.9°C 10.3°F-12.1°C 91% Calm Calm -- 30.61 in1036.6 mb - 0.00 in0.0 mm 0.00 in0.0 mm
12:50 AM 12.4°F-10.9°C 10.2°F-12.1°C 91% Calm Calm -- 30.61 in1036.6 mb - 0.00 in0.0 mm 0.00 in0.0 mm
12:55 AM 12.3°F-10.9°C 10.2°F-12.1°C 91% Calm Calm -- 30.61 in1036.6 mb - 0.00 in0.0 mm 0.00 in0.0 mm
01:00 AM 12.4°F-10.9°C 10.5°F-11.9°C 92% Calm Calm -- 30.61 in1036.6 mb - 0.00 in0.0 mm 0.00 in0.0 mm
01:10 AM 12.4°F-10.9°C 10.3°F-12.1°C 91% Calm Calm -- 30.61 in1036.6 mb - 0.00 in0.0 mm 0.00 in0.0 mm
01:15 AM 12.2°F-11.0°C 9.8°F-12.3°C 90% Calm Calm -- 30.61 in1036.6 mb - 0.00 in0.0 mm 0.00 in0.0 mm
01:20 AM 12.0°F-11.1°C 9.6°F-12.4°C 90% Calm Calm -- 30.61 in1036.6 mb - 0.00 in0.0 mm 0.00 in0.0 mm
01:25 AM 11.8°F-11.2°C 9.5°F-12.5°C 90% Calm Calm -- 30.61 in1036.6 mb - 0.00 in0.0 mm 0.00 in0.0 mm
01:30 AM 11.8°F-11.2°C 9.4°F-12.6°C 90% Calm Calm 2.3 mph3.7 kmh 30.61 in1036.6 mb - 0.00 in0.0 mm 0.00 in0.0 mm
01:35 AM 11.7°F-11.3°C 9.3°F-12.6°C 90% Calm Calm 2.3 mph3.7 kmh 30.61 in1036.6 mb - 0.00 in0.0 mm 0.00 in0.0 mm
01:40 AM 11.5°F-11.4°C 8.9°F-12.8°C 89% 1.2 mph WSW1.9 kmh WSW 1.2 mph1.9 kmh 30.60 in1036.2 mb - 0.00 in0.0 mm 0.00 in0.0 mm
01:45 AM 11.3°F-11.5°C 8.7°F-12.9°C 89% Calm Calm -- 30.60 in1036.2 mb - 0.00 in0.0 mm 0.00 in0.0 mm
01:50 AM 11.0°F-11.7°C 8.4°F-13.1°C 89% Calm Calm -- 30.60 in1036.2 mb - 0.00 in0.0 mm 0.00 in0.0 mm
01:55 AM 10.9°F-11.7°C 8.3°F-13.2°C 89% Calm Calm -- 30.60 in1036.2 mb - 0.00 in0.0 mm 0.00 in0.0 mm
02:00 AM 10.8°F-11.8°C 8.2°F-13.2°C 89% 1.2 mph WSW1.9 kmh WSW 1.2 mph1.9 kmh 30.60 in1036.2 mb - 0.00 in0.0 mm 0.00 in0.0 mm
02:10 AM 10.8°F-11.8°C 8.4°F-13.1°C 90% Calm Calm -- 30.60 in1036.2 mb - 0.00 in0.0 mm 0.00 in0.0 mm
02:15 AM 10.8°F-11.8°C 8.4°F-13.1°C 90% Calm Calm -- 30.60 in1036.2 mb - 0.00 in0.0 mm 0.00 in0.0 mm
02:20 AM 10.9°F-11.7°C 8.5°F-13.1°C 90% Calm Calm -- 30.60 in1036.2 mb - 0.00 in0.0 mm 0.00 in0.0 mm
02:25 AM 10.9°F-11.7°C 8.5°F-13.1°C 90% Calm Calm -- 30.60 in1036.2 mb - 0.00 in0.0 mm 0.00 in0.0 mm
02:30 AM 10.9°F-11.7°C 8.5°F-13.1°C 90% Calm Calm -- 30.60 in1036.2 mb - 0.00 in0.0 mm 0.00 in0.0 mm
02:35 AM 10.8°F-11.8°C 8.2°F-13.2°C 89% Calm Calm -- 30.59 in1035.9 mb - 0.00 in0.0 mm 0.00 in0.0 mm
02:40 AM 10.8°F-11.8°C 8.4°F-13.1°C 90% Calm Calm -- 30.59 in1035.9 mb - 0.00 in0.0 mm 0.00 in0.0 mm
02:45 AM 10.7°F-11.8°C 8.3°F-13.2°C 90% Calm Calm -- 30.59 in1035.9 mb - 0.00 in0.0 mm 0.00 in0.0 mm
02:50 AM 10.7°F-11.8°C 8.1°F-13.3°C 89% Calm Calm -- 30.59 in1035.9 mb - 0.00 in0.0 mm 0.00 in0.0 mm
02:55 AM 10.7°F-11.8°C 8.3°F-13.2°C 90% Calm Calm -- 30.59 in1035.9 mb - 0.00 in0.0 mm 0.00 in0.0 mm
03:00 AM 10.8°F-11.8°C 8.5°F-13.1°C 90% Calm Calm -- 30.59 in1035.9 mb - 0.00 in0.0 mm 0.00 in0.0 mm
03:10 AM 11.0°F-11.7°C 8.9°F-12.8°C 91% Calm Calm -- 30.59 in1035.9 mb - 0.00 in0.0 mm 0.00 in0.0 mm
03:15 AM 11.1°F-11.6°C 9.0°F-12.8°C 91% Calm Calm -- 30.59 in1035.9 mb - 0.00 in0.0 mm 0.00 in0.0 mm
03:20 AM 11.1°F-11.6°C 8.7°F-12.9°C 90% Calm Calm -- 30.59 in1035.9 mb - 0.00 in0.0 mm 0.00 in0.0 mm
03:25 AM 11.1°F-11.6°C 8.7°F-12.9°C 90% Calm Calm -- 30.59 in1035.9 mb - 0.00 in0.0 mm 0.00 in0.0 mm
03:30 AM 11.0°F-11.7°C 8.7°F-12.9°C 90% Calm Calm -- 30.59 in1035.9 mb - 0.00 in0.0 mm 0.00 in0.0 mm
03:35 AM 11.1°F-11.6°C 8.7°F-12.9°C 90% Calm Calm -- 30.59 in1035.9 mb - 0.00 in0.0 mm 0.00 in0.0 mm
03:40 AM 11.1°F-11.6°C 8.7°F-12.9°C 90% Calm Calm -- 30.59 in1035.9 mb - 0.00 in0.0 mm 0.00 in0.0 mm
03:45 AM 10.7°F-11.8°C 8.1°F-13.3°C 89% Calm Calm 2.3 mph3.7 kmh 30.59 in1035.9 mb - 0.00 in0.0 mm 0.00 in0.0 mm
03:50 AM 10.4°F-12.0°C 7.6°F-13.6°C 88% 1.2 mph WNW1.9 kmh WNW 2.3 mph3.7 kmh 30.59 in1035.9 mb - 0.00 in0.0 mm 0.00 in0.0 mm
03:55 AM 10.0°F-12.2°C 7.2°F-13.8°C 88% Calm Calm -- 30.59 in1035.9 mb - 0.00 in0.0 mm 0.00 in0.0 mm
04:00 AM 9.6°F-12.4°C 6.8°F-14.0°C 88% Calm Calm -- 30.59 in1035.9 mb - 0.00 in0.0 mm 0.00 in0.0 mm
04:10 AM 9.0°F-12.8°C 6.2°F-14.3°C 88% Calm Calm -- 30.59 in1035.9 mb - 0.00 in0.0 mm 0.00 in0.0 mm
04:15 AM 8.8°F-12.9°C 5.7°F-14.6°C 87% 1.2 mph WNW1.9 kmh WNW 2.3 mph3.7 kmh 30.59 in1035.9 mb - 0.00 in0.0 mm 0.00 in0.0 mm
04:20 AM 8.5°F-13.1°C 5.4°F-14.8°C 87% Calm Calm -- 30.59 in1035.9 mb - 0.00 in0.0 mm 0.00 in0.0 mm
04:25 AM 8.3°F-13.2°C 5.2°F-14.9°C 87% Calm Calm -- 30.58 in1035.6 mb - 0.00 in0.0 mm 0.00 in0.0 mm
04:30 AM 8.0°F-13.3°C 4.9°F-15.1°C 87% Calm Calm -- 30.59 in1035.9 mb - 0.00 in0.0 mm 0.00 in0.0 mm
04:35 AM 7.9°F-13.4°C 5.1°F-14.9°C 88% Calm Calm -- 30.58 in1035.6 mb - 0.00 in0.0 mm 0.00 in0.0 mm
04:40 AM 7.7°F-13.5°C 4.9°F-15.1°C 88% Calm Calm -- 30.58 in1035.6 mb - 0.00 in0.0 mm 0.00 in0.0 mm
04:45 AM 7.5°F-13.6°C 4.7°F-15.2°C 88% Calm Calm 2.3 mph3.7 kmh 30.58 in1035.6 mb - 0.00 in0.0 mm 0.00 in0.0 mm
04:50 AM 7.4°F-13.7°C 4.8°F-15.1°C 89% Calm Calm -- 30.58 in1035.6 mb - 0.00 in0.0 mm 0.00 in0.0 mm
04:55 AM 7.3°F-13.7°C 4.8°F-15.1°C 89% Calm Calm -- 30.58 in1035.6 mb - 0.00 in0.0 mm 0.00 in0.0 mm
05:00 AM 7.3°F-13.7°C 4.7°F-15.2°C 89% Calm Calm -- 30.58 in1035.6 mb - 0.00 in0.0 mm 0.00 in0.0 mm
05:10 AM 7.4°F-13.7°C 5.1°F-14.9°C 90% Calm Calm -- 30.58 in1035.6 mb - 0.00 in0.0 mm 0.00 in0.0 mm
05:15 AM 7.5°F-13.6°C 5.2°F-14.9°C 90% Calm Calm -- 30.58 in1035.6 mb - 0.00 in0.0 mm 0.00 in0.0 mm
05:20 AM 7.5°F-13.6°C 4.9°F-15.1°C 89% Calm Calm -- 30.58 in1035.6 mb - 0.00 in0.0 mm 0.00 in0.0 mm
05:25 AM 7.5°F-13.6°C 4.9°F-15.1°C 89% Calm Calm -- 30.58 in1035.6 mb - 0.00 in0.0 mm 0.00 in0.0 mm
05:30 AM 7.5°F-13.6°C 4.9°F-15.1°C 89% Calm Calm -- 30.58 in1035.6 mb - 0.00 in0.0 mm 0.00 in0.0 mm
05:35 AM 7.6°F-13.6°C 5.0°F-15.0°C 89% Calm Calm -- 30.57 in1035.2 mb - 0.00 in0.0 mm 0.00 in0.0 mm
05:40 AM 7.6°F-13.6°C 5.1°F-14.9°C 89% Calm Calm -- 30.57 in1035.2 mb - 0.00 in0.0 mm 0.00 in0.0 mm
05:45 AM 7.7°F-13.5°C 5.1°F-14.9°C 89% Calm Calm -- 30.57 in1035.2 mb - 0.00 in0.0 mm 0.00 in0.0 mm
05:50 AM 7.8°F-13.4°C 5.5°F-14.7°C 90% Calm Calm -- 30.57 in1035.2 mb - 0.00 in0.0 mm 0.00 in0.0 mm
05:55 AM 7.8°F-13.4°C 5.5°F-14.7°C 90% Calm Calm -- 30.57 in1035.2 mb - 0.00 in0.0 mm 0.00 in0.0 mm
06:00 AM 7.8°F-13.4°C 5.5°F-14.7°C 90% Calm Calm -- 30.57 in1035.2 mb - 0.00 in0.0 mm 0.00 in0.0 mm
06:10 AM 7.8°F-13.4°C 5.2°F-14.9°C 89% Calm Calm -- 30.57 in1035.2 mb - 0.00 in0.0 mm 0.00 in0.0 mm
06:15 AM 7.8°F-13.4°C 5.2°F-14.9°C 89% Calm Calm -- 30.57 in1035.2 mb - 0.00 in0.0 mm 0.00 in0.0 mm
06:20 AM 7.8°F-13.4°C 5.2°F-14.9°C 89% Calm Calm -- 30.57 in1035.2 mb - 0.00 in0.0 mm 0.00 in0.0 mm
06:25 AM 7.8°F-13.4°C 5.5°F-14.7°C 90% Calm Calm -- 30.57 in1035.2 mb - 0.00 in0.0 mm 0.00 in0.0 mm
06:30 AM 7.9°F-13.4°C 5.6°F-14.7°C 90% Calm Calm -- 30.57 in1035.2 mb - 0.00 in0.0 mm 0.00 in0.0 mm
06:35 AM 8.0°F-13.3°C 5.7°F-14.6°C 90% Calm Calm -- 30.57 in1035.2 mb - 0.00 in0.0 mm 0.00 in0.0 mm
06:40 AM 8.0°F-13.3°C 5.5°F-14.7°C 89% Calm Calm -- 30.57 in1035.2 mb - 0.00 in0.0 mm 0.00 in0.0 mm
06:45 AM 8.1°F-13.3°C 5.5°F-14.7°C 89% Calm Calm -- 30.58 in1035.6 mb - 0.00 in0.0 mm 0.00 in0.0 mm
06:50 AM 8.1°F-13.3°C 5.5°F-14.7°C 89% Calm Calm -- 30.58 in1035.6 mb - 0.00 in0.0 mm 0.00 in0.0 mm
06:55 AM 8.0°F-13.3°C 5.2°F-14.9°C 88% Calm Calm -- 30.58 in1035.6 mb - 0.00 in0.0 mm 0.00 in0.0 mm
07:00 AM 7.9°F-13.4°C 5.1°F-14.9°C 88% Calm Calm -- 30.58 in1035.6 mb - 0.00 in0.0 mm 0.00 in0.0 mm
07:10 AM 7.6°F-13.6°C 4.8°F-15.1°C 88% Calm Calm -- 30.58 in1035.6 mb - 0.00 in0.0 mm 0.00 in0.0 mm
07:15 AM 7.6°F-13.6°C 4.8°F-15.1°C 88% Calm Calm -- 30.58 in1035.6 mb - 0.00 in0.0 mm 0.00 in0.0 mm
07:20 AM 7.5°F-13.6°C 4.7°F-15.2°C 88% Calm Calm -- 30.58 in1035.6 mb - 0.00 in0.0 mm 0.00 in0.0 mm
07:25 AM 7.4°F-13.7°C 4.6°F-15.2°C 88% Calm Calm -- 30.58 in1035.6 mb - 0.00 in0.0 mm 0.00 in0.0 mm
07:30 AM 7.2°F-13.8°C 4.4°F-15.3°C 88% Calm Calm -- 30.58 in1035.6 mb - 0.00 in0.0 mm 0.00 in0.0 mm
07:35 AM 7.2°F-13.8°C 4.4°F-15.3°C 88% Calm Calm -- 30.58 in1035.6 mb - 0.00 in0.0 mm 0.00 in0.0 mm
07:40 AM 7.2°F-13.8°C 4.6°F-15.2°C 89% Calm Calm 2.3 mph3.7 kmh 30.58 in1035.6 mb - 0.00 in0.0 mm 0.00 in0.0 mm
07:45 AM 7.2°F-13.8°C 4.6°F-15.2°C 89% Calm Calm 1.2 mph1.9 kmh 30.59 in1035.9 mb - 0.00 in0.0 mm 0.00 in0.0 mm
07:50 AM 7.2°F-13.8°C 4.6°F-15.2°C 89% Calm Calm -- 30.59 in1035.9 mb - 0.00 in0.0 mm 0.00 in0.0 mm
07:55 AM 7.2°F-13.8°C 4.6°F-15.2°C 89% Calm Calm -- 30.59 in1035.9 mb - 0.00 in0.0 mm 0.00 in0.0 mm
08:00 AM 7.3°F-13.7°C 4.7°F-15.2°C 89% Calm Calm -- 30.59 in1035.9 mb - 0.00 in0.0 mm 0.00 in0.0 mm
08:10 AM 7.3°F-13.7°C 4.7°F-15.2°C 89% Calm Calm -- 30.60 in1036.2 mb - 0.00 in0.0 mm 0.00 in0.0 mm
08:15 AM 7.5°F-13.6°C 4.9°F-15.1°C 89% Calm Calm -- 30.60 in1036.2 mb - 0.00 in0.0 mm 0.00 in0.0 mm
08:20 AM 7.6°F-13.6°C 5.0°F-15.0°C 89% Calm Calm 1.2 mph1.9 kmh 30.60 in1036.2 mb - 0.00 in0.0 mm 0.00 in0.0 mm
08:25 AM 7.7°F-13.5°C 5.1°F-14.9°C 89% 1.2 mph NW1.9 kmh NW -- 30.60 in1036.2 mb - 0.00 in0.0 mm 0.00 in0.0 mm
08:30 AM 7.8°F-13.4°C 5.5°F-14.7°C 90% Calm Calm -- 30.60 in1036.2 mb - 0.00 in0.0 mm 0.00 in0.0 mm
08:35 AM 7.9°F-13.4°C 5.6°F-14.7°C 90% Calm Calm -- 30.60 in1036.2 mb - 0.00 in0.0 mm 0.00 in0.0 mm
08:40 AM 8.0°F-13.3°C 5.7°F-14.6°C 90% Calm Calm -- 30.60 in1036.2 mb - 0.00 in0.0 mm 0.00 in0.0 mm
08:45 AM 8.3°F-13.2°C 6.0°F-14.4°C 90% Calm Calm -- 30.60 in1036.2 mb - 0.00 in0.0 mm 0.00 in0.0 mm
08:50 AM 8.3°F-13.2°C 5.7°F-14.6°C 89% Calm Calm 2.3 mph3.7 kmh 30.60 in1036.2 mb - 0.00 in0.0 mm 0.00 in0.0 mm
08:55 AM 8.1°F-13.3°C 5.3°F-14.8°C 88% Calm Calm 2.3 mph3.7 kmh 30.60 in1036.2 mb - 0.00 in0.0 mm 0.00 in0.0 mm
09:00 AM 7.7°F-13.5°C 4.9°F-15.1°C 88% 2.3 mph WSW3.7 kmh WSW 3.5 mph5.6 kmh 30.60 in1036.2 mb - 0.00 in0.0 mm 0.00 in0.0 mm
09:10 AM 7.6°F-13.6°C 5.0°F-15.0°C 89% 2.3 mph WSW3.7 kmh WSW 3.5 mph5.6 kmh 30.59 in1035.9 mb - 0.00 in0.0 mm 0.00 in0.0 mm
09:15 AM 7.8°F-13.4°C 5.2°F-14.9°C 89% 2.3 mph WSW3.7 kmh WSW 3.5 mph5.6 kmh 30.59 in1035.9 mb - 0.00 in0.0 mm 0.00 in0.0 mm
09:20 AM 8.2°F-13.2°C 5.9°F-14.5°C 90% Calm Calm 2.3 mph3.7 kmh 30.59 in1035.9 mb - 0.00 in0.0 mm 0.00 in0.0 mm
09:30 AM 9.7°F-12.4°C 7.3°F-13.7°C 90% Calm Calm -- 30.59 in1035.9 mb - 0.00 in0.0 mm 0.00 in0.0 mm
09:35 AM 9.8°F-12.3°C 7.2°F-13.8°C 89% Calm Calm -- 30.59 in1035.9 mb - 0.00 in0.0 mm 0.00 in0.0 mm
09:40 AM 10.1°F-12.2°C 7.5°F-13.6°C 89% Calm Calm 1.2 mph1.9 kmh 30.59 in1035.9 mb - 0.00 in0.0 mm 0.00 in0.0 mm
09:45 AM 10.6°F-11.9°C 8.0°F-13.3°C 89% Calm Calm 1.2 mph1.9 kmh 30.59 in1035.9 mb - 0.00 in0.0 mm 0.00 in0.0 mm
09:50 AM 11.5°F-11.4°C 8.8°F-12.9°C 89% 1.2 mph NNW1.9 kmh NNW 2.3 mph3.7 kmh 30.60 in1036.2 mb - 0.00 in0.0 mm 0.00 in0.0 mm
09:55 AM 12.6°F-10.8°C 9.9°F-12.3°C 89% Calm Calm -- 30.60 in1036.2 mb - 0.00 in0.0 mm 0.00 in0.0 mm
10:00 AM 13.5°F-10.3°C 10.9°F-11.7°C 89% 1.2 mph NNE1.9 kmh NNE 2.3 mph3.7 kmh 30.60 in1036.2 mb - 0.00 in0.0 mm 0.00 in0.0 mm
10:10 AM 14.6°F-9.7°C 12.0°F-11.1°C 89% Calm Calm 3.5 mph5.6 kmh 30.61 in1036.6 mb - 0.00 in0.0 mm 0.00 in0.0 mm
10:15 AM 15.1°F-9.4°C 12.2°F-11.0°C 88% 1.2 mph NNE1.9 kmh NNE 3.5 mph5.6 kmh 30.61 in1036.6 mb - 0.00 in0.0 mm 0.00 in0.0 mm
10:20 AM 15.5°F-9.2°C 12.3°F-10.9°C 87% 1.2 mph N1.9 kmh N 2.3 mph3.7 kmh 30.61 in1036.6 mb - 0.00 in0.0 mm 0.00 in0.0 mm
10:25 AM 16.0°F-8.9°C 12.8°F-10.7°C 87% Calm Calm -- 30.61 in1036.6 mb - 0.00 in0.0 mm 0.00 in0.0 mm
10:30 AM 16.5°F-8.6°C 13.3°F-10.4°C 87% Calm Calm -- 30.61 in1036.6 mb - 0.00 in0.0 mm 0.00 in0.0 mm
10:35 AM 17.0°F-8.3°C 13.6°F-10.2°C 86% Calm Calm 1.2 mph1.9 kmh 30.61 in1036.6 mb - 0.00 in0.0 mm 0.00 in0.0 mm
10:40 AM 17.4°F-8.1°C 13.6°F-10.2°C 85% Calm Calm -- 30.61 in1036.6 mb - 0.00 in0.0 mm 0.00 in0.0 mm
10:45 AM 18.2°F-7.7°C 14.5°F-9.7°C 85% Calm Calm -- 30.61 in1036.6 mb - 0.00 in0.0 mm 0.00 in0.0 mm
10:50 AM 19.0°F-7.2°C 14.7°F-9.6°C 83% Calm Calm -- 30.60 in1036.2 mb - 0.00 in0.0 mm 0.00 in0.0 mm
10:55 AM 19.7°F-6.8°C 15.4°F-9.2°C 83% Calm Calm -- 30.60 in1036.2 mb - 0.00 in0.0 mm 0.00 in0.0 mm
11:00 AM 19.9°F-6.7°C 15.0°F-9.4°C 81% Calm Calm -- 30.60 in1036.2 mb - 0.00 in0.0 mm 0.00 in0.0 mm
11:10 AM 20.6°F-6.3°C 15.7°F-9.1°C 81% Calm Calm -- 30.60 in1036.2 mb - 0.00 in0.0 mm 0.00 in0.0 mm
11:15 AM 21.0°F-6.1°C 16.0°F-8.9°C 81% Calm Calm -- 30.60 in1036.2 mb - 0.00 in0.0 mm 0.00 in0.0 mm
11:20 AM 21.1°F-6.1°C 15.9°F-8.9°C 80% Calm Calm 2.3 mph3.7 kmh 30.60 in1036.2 mb - 0.00 in0.0 mm 0.00 in0.0 mm
11:25 AM 21.1°F-6.1°C 15.6°F-9.1°C 79% 1.2 mph E1.9 kmh E 1.2 mph1.9 kmh 30.59 in1035.9 mb - 0.00 in0.0 mm 0.00 in0.0 mm
11:30 AM 20.9°F-6.2°C 15.7°F-9.1°C 80% Calm Calm 1.2 mph1.9 kmh 30.59 in1035.9 mb - 0.00 in0.0 mm 0.00 in0.0 mm
11:35 AM 21.0°F-6.1°C 16.1°F-8.8°C 81% Calm Calm 3.5 mph5.6 kmh 30.59 in1035.9 mb - 0.00 in0.0 mm 0.00 in0.0 mm
11:40 AM 21.2°F-6.0°C 16.2°F-8.8°C 81% 1.2 mph ENE1.9 kmh ENE 3.5 mph5.6 kmh 30.59 in1035.9 mb - 0.00 in0.0 mm 0.00 in0.0 mm
11:45 AM 21.5°F-5.8°C 16.6°F-8.6°C 81% 1.2 mph E1.9 kmh E 3.5 mph5.6 kmh 30.59 in1035.9 mb - 0.00 in0.0 mm 0.00 in0.0 mm
11:50 AM 22.0°F-5.6°C 16.8°F-8.4°C 80% 1.2 mph E1.9 kmh E 2.3 mph3.7 kmh 30.59 in1035.9 mb - 0.00 in0.0 mm 0.00 in0.0 mm
11:55 AM 22.7°F-5.2°C 17.4°F-8.1°C 80% 1.2 mph E1.9 kmh E 3.5 mph5.6 kmh 30.59 in1035.9 mb - 0.00 in0.0 mm 0.00 in0.0 mm
12:00 PM 22.6°F-5.2°C 17.4°F-8.1°C 80% 1.2 mph E1.9 kmh E 3.5 mph5.6 kmh 30.59 in1035.9 mb - 0.00 in0.0 mm 0.00 in0.0 mm
12:10 PM 23.2°F-4.9°C 17.7°F-7.9°C 79% 2.3 mph NE3.7 kmh NE 4.6 mph7.4 kmh 30.59 in1035.9 mb - 0.00 in0.0 mm 0.00 in0.0 mm
12:15 PM 22.9°F-5.1°C 17.4°F-8.1°C 79% 2.3 mph ENE3.7 kmh ENE 3.5 mph5.6 kmh 30.58 in1035.6 mb - 0.00 in0.0 mm 0.00 in0.0 mm
12:20 PM 23.4°F-4.8°C 17.8°F-7.9°C 79% 2.3 mph E3.7 kmh E 3.5 mph5.6 kmh 30.58 in1035.6 mb - 0.00 in0.0 mm 0.00 in0.0 mm
12:25 PM 23.8°F-4.6°C 18.3°F-7.6°C 79% Calm Calm -- 30.58 in1035.6 mb - 0.00 in0.0 mm 0.00 in0.0 mm
12:30 PM 24.4°F-4.2°C 18.2°F-7.7°C 77% Calm Calm -- 30.57 in1035.2 mb - 0.00 in0.0 mm 0.00 in0.0 mm
12:35 PM 24.3°F-4.3°C 18.4°F-7.6°C 78% Calm Calm -- 30.57 in1035.2 mb - 0.00 in0.0 mm 0.00 in0.0 mm
12:40 PM 24.6°F-4.1°C 18.4°F-7.6°C 77% Calm Calm -- 30.57 in1035.2 mb - 0.00 in0.0 mm 0.00 in0.0 mm
12:45 PM 25.7°F-3.5°C 19.1°F-7.2°C 76% Calm Calm -- 30.57 in1035.2 mb - 0.00 in0.0 mm 0.00 in0.0 mm
12:50 PM 26.7°F-2.9°C 19.6°F-6.9°C 74% Calm Calm -- 30.57 in1035.2 mb - 0.00 in0.0 mm 0.00 in0.0 mm
12:55 PM 27.1°F-2.7°C 19.5°F-6.9°C 73% Calm Calm -- 30.56 in1034.9 mb - 0.00 in0.0 mm 0.00 in0.0 mm
01:00 PM 27.6°F-2.4°C 20.0°F-6.7°C 73% Calm Calm -- 30.56 in1034.9 mb - 0.00 in0.0 mm 0.00 in0.0 mm
01:10 PM 27.2°F-2.7°C 19.7°F-6.8°C 73% Calm Calm -- 30.56 in1034.9 mb - 0.00 in0.0 mm 0.00 in0.0 mm
01:15 PM 28.1°F-2.2°C 20.3°F-6.5°C 72% Calm Calm -- 30.56 in1034.9 mb - 0.00 in0.0 mm 0.00 in0.0 mm
01:20 PM 28.1°F-2.2°C 19.9°F-6.7°C 71% Calm Calm -- 30.56 in1034.9 mb - 0.00 in0.0 mm 0.00 in0.0 mm
01:25 PM 28.3°F-2.1°C 20.5°F-6.4°C 72% Calm Calm -- 30.55 in1034.5 mb - 0.00 in0.0 mm 0.00 in0.0 mm
01:30 PM 28.9°F-1.7°C 20.7°F-6.3°C 71% Calm Calm -- 30.55 in1034.5 mb - 0.00 in0.0 mm 0.00 in0.0 mm
01:35 PM 29.6°F-1.3°C 21.0°F-6.1°C 70% Calm Calm -- 30.55 in1034.5 mb - 0.00 in0.0 mm 0.00 in0.0 mm
01:40 PM 29.8°F-1.2°C 21.2°F-6.0°C 70% Calm Calm -- 30.55 in1034.5 mb - 0.00 in0.0 mm 0.00 in0.0 mm
01:45 PM 30.0°F-1.1°C 21.1°F-6.1°C 69% Calm Calm -- 30.55 in1034.5 mb - 0.00 in0.0 mm 0.00 in0.0 mm
01:50 PM 30.0°F-1.1°C 21.0°F-6.1°C 69% Calm Calm -- 30.55 in1034.5 mb - 0.00 in0.0 mm 0.00 in0.0 mm
01:55 PM 29.6°F-1.3°C 20.7°F-6.3°C 69% Calm Calm -- 30.55 in1034.5 mb - 0.00 in0.0 mm 0.00 in0.0 mm
02:00 PM 29.9°F-1.2°C 21.0°F-6.1°C 69% Calm Calm -- 30.54 in1034.2 mb - 0.00 in0.0 mm 0.00 in0.0 mm
02:10 PM 31.1°F-0.5°C 22.1°F-5.5°C 69% Calm Calm -- 30.54 in1034.2 mb - 0.00 in0.0 mm 0.00 in0.0 mm
02:15 PM 31.7°F-0.2°C 22.3°F-5.4°C 68% Calm Calm 1.2 mph1.9 kmh 30.54 in1034.2 mb - 0.00 in0.0 mm 0.00 in0.0 mm
02:20 PM 31.8°F-0.1°C 22.5°F-5.3°C 68% Calm Calm -- 30.54 in1034.2 mb - 0.00 in0.0 mm 0.00 in0.0 mm
02:25 PM 32.2°F0.1°C 22.8°F-5.1°C 68% Calm Calm 2.3 mph3.7 kmh 30.54 in1034.2 mb - 0.00 in0.0 mm 0.00 in0.0 mm
02:30 PM 32.3°F0.2°C 22.9°F-5.1°C 68% Calm Calm 2.3 mph3.7 kmh 30.54 in1034.2 mb - 0.00 in0.0 mm 0.00 in0.0 mm
02:35 PM 32.2°F0.1°C 23.2°F-4.9°C 69% 1.2 mph SSW1.9 kmh SSW 3.5 mph5.6 kmh 30.54 in1034.2 mb - 0.00 in0.0 mm 0.00 in0.0 mm
02:40 PM 32.4°F0.2°C 23.7°F-4.6°C 70% Calm Calm 3.5 mph5.6 kmh 30.54 in1034.2 mb - 0.00 in0.0 mm 0.00 in0.0 mm
02:45 PM 32.6°F0.3°C 23.6°F-4.7°C 69% 1.2 mph SSE1.9 kmh SSE 5.8 mph9.3 kmh 30.54 in1034.2 mb - 0.00 in0.0 mm 0.00 in0.0 mm
02:50 PM 32.2°F0.1°C 23.5°F-4.7°C 70% 2.3 mph SSE3.7 kmh SSE 3.5 mph5.6 kmh 30.54 in1034.2 mb - 0.00 in0.0 mm 0.00 in0.0 mm
02:55 PM 32.1°F0.1°C 23.4°F-4.8°C 70% 2.3 mph S3.7 kmh S 3.5 mph5.6 kmh 30.54 in1034.2 mb - 0.00 in0.0 mm 0.00 in0.0 mm
03:00 PM 32.1°F0.1°C 23.4°F-4.8°C 70% 2.3 mph SSW3.7 kmh SSW 3.5 mph5.6 kmh 30.54 in1034.2 mb - 0.00 in0.0 mm 0.00 in0.0 mm
03:10 PM 31.6°F-0.2°C 23.3°F-4.8°C 71% 2.3 mph SSW3.7 kmh SSW 4.6 mph7.4 kmh 30.54 in1034.2 mb - 0.00 in0.0 mm 0.00 in0.0 mm
03:15 PM 31.2°F-0.4°C 23.3°F-4.8°C 72% 1.2 mph S1.9 kmh S 3.5 mph5.6 kmh 30.54 in1034.2 mb - 0.00 in0.0 mm 0.00 in0.0 mm
03:20 PM 31.0°F-0.6°C 23.1°F-4.9°C 72% Calm Calm 3.5 mph5.6 kmh 30.54 in1034.2 mb - 0.00 in0.0 mm 0.00 in0.0 mm
03:25 PM 30.9°F-0.6°C 23.3°F-4.8°C 73% 1.2 mph S1.9 kmh S 2.3 mph3.7 kmh 30.54 in1034.2 mb - 0.00 in0.0 mm 0.00 in0.0 mm
03:30 PM 30.7°F-0.7°C 23.1°F-4.9°C 73% 1.2 mph S1.9 kmh S 1.2 mph1.9 kmh 30.54 in1034.2 mb - 0.00 in0.0 mm 0.00 in0.0 mm
03:35 PM 30.6°F-0.8°C 23.0°F-5.0°C 73% Calm Calm -- 30.54 in1034.2 mb - 0.00 in0.0 mm 0.00 in0.0 mm
03:40 PM 30.5°F-0.8°C 23.2°F-4.9°C 74% Calm Calm -- 30.54 in1034.2 mb - 0.00 in0.0 mm 0.00 in0.0 mm
03:45 PM 30.5°F-0.8°C 22.9°F-5.1°C 73% Calm Calm -- 30.54 in1034.2 mb - 0.00 in0.0 mm 0.00 in0.0 mm
03:55 PM 30.3°F-0.9°C 22.7°F-5.2°C 73% 1.2 mph S1.9 kmh S 2.3 mph3.7 kmh 30.54 in1034.2 mb - 0.00 in0.0 mm 0.00 in0.0 mm
04:00 PM 30.2°F-1.0°C 22.9°F-5.1°C 74% Calm Calm 1.2 mph1.9 kmh 30.54 in1034.2 mb - 0.00 in0.0 mm 0.00 in0.0 mm
04:10 PM 29.8°F-1.2°C 22.5°F-5.3°C 74% Calm Calm 3.5 mph5.6 kmh 30.54 in1034.2 mb - 0.00 in0.0 mm 0.00 in0.0 mm
04:15 PM 29.6°F-1.3°C 22.3°F-5.4°C 74% 1.2 mph S1.9 kmh S 3.5 mph5.6 kmh 30.54 in1034.2 mb - 0.00 in0.0 mm 0.00 in0.0 mm
04:20 PM 29.5°F-1.4°C 22.5°F-5.3°C 75% Calm Calm 1.2 mph1.9 kmh 30.54 in1034.2 mb - 0.00 in0.0 mm 0.00 in0.0 mm
05:00 PM 27.5°F-2.5°C 21.2°F-6.0°C 77% Calm Calm -- 30.54 in1034.2 mb - 0.00 in0.0 mm 0.00 in0.0 mm
05:10 PM 26.8°F-2.9°C 20.6°F-6.3°C 77% Calm Calm -- 30.55 in1034.5 mb - 0.00 in0.0 mm 0.00 in0.0 mm
05:20 PM 26.2°F-3.2°C 20.5°F-6.4°C 79% Calm Calm -- 30.55 in1034.5 mb - 0.00 in0.0 mm 0.00 in0.0 mm
05:25 PM 25.9°F-3.4°C 20.6°F-6.3°C 80% Calm Calm -- 30.55 in1034.5 mb - 0.00 in0.0 mm 0.00 in0.0 mm
05:30 PM 25.6°F-3.6°C 20.3°F-6.5°C 80% Calm Calm -- 30.55 in1034.5 mb - 0.00 in0.0 mm 0.00 in0.0 mm
05:35 PM 25.3°F-3.7°C 20.0°F-6.7°C 80% Calm Calm -- 30.55 in1034.5 mb - 0.00 in0.0 mm 0.00 in0.0 mm
05:40 PM 25.1°F-3.8°C 20.1°F-6.6°C 81% Calm Calm -- 30.55 in1034.5 mb - 0.00 in0.0 mm 0.00 in0.0 mm
05:45 PM 24.9°F-3.9°C 20.2°F-6.6°C 82% Calm Calm -- 30.55 in1034.5 mb - 0.00 in0.0 mm 0.00 in0.0 mm
05:50 PM 24.8°F-4.0°C 20.1°F-6.6°C 82% Calm Calm -- 30.55 in1034.5 mb - 0.00 in0.0 mm 0.00 in0.0 mm
05:55 PM 24.8°F-4.0°C 20.4°F-6.4°C 83% Calm Calm -- 30.55 in1034.5 mb - 0.00 in0.0 mm 0.00 in0.0 mm
06:00 PM 24.8°F-4.0°C 20.0°F-6.7°C 82% Calm Calm -- 30.55 in1034.5 mb - 0.00 in0.0 mm 0.00 in0.0 mm
06:10 PM 24.3°F-4.3°C 19.6°F-6.9°C 82% Calm Calm -- 30.55 in1034.5 mb - 0.00 in0.0 mm 0.00 in0.0 mm
06:15 PM 24.0°F-4.4°C 19.6°F-6.9°C 83% Calm Calm -- 30.55 in1034.5 mb - 0.00 in0.0 mm 0.00 in0.0 mm
06:20 PM 23.9°F-4.5°C 19.8°F-6.8°C 84% Calm Calm -- 30.55 in1034.5 mb - 0.00 in0.0 mm 0.00 in0.0 mm
06:25 PM 23.8°F-4.6°C 19.7°F-6.8°C 84% 1.2 mph SSE1.9 kmh SSE 2.3 mph3.7 kmh 30.55 in1034.5 mb - 0.00 in0.0 mm 0.00 in0.0 mm
06:30 PM 24.0°F-4.4°C 19.9°F-6.7°C 84% 1.2 mph S1.9 kmh S 2.3 mph3.7 kmh 30.55 in1034.5 mb - 0.00 in0.0 mm 0.00 in0.0 mm
06:35 PM 24.1°F-4.4°C 20.0°F-6.7°C 84% 1.2 mph S1.9 kmh S 2.3 mph3.7 kmh 30.56 in1034.9 mb - 0.00 in0.0 mm 0.00 in0.0 mm
06:40 PM 24.2°F-4.3°C 20.1°F-6.6°C 84% Calm Calm 1.2 mph1.9 kmh 30.56 in1034.9 mb - 0.00 in0.0 mm 0.00 in0.0 mm
06:45 PM 24.1°F-4.4°C 19.7°F-6.8°C 83% 1.2 mph S1.9 kmh S 2.3 mph3.7 kmh 30.56 in1034.9 mb - 0.00 in0.0 mm 0.00 in0.0 mm
06:50 PM 24.0°F-4.4°C 19.6°F-6.9°C 83% 1.2 mph S1.9 kmh S 3.5 mph5.6 kmh 30.56 in1034.9 mb - 0.00 in0.0 mm 0.00 in0.0 mm
06:55 PM 23.9°F-4.5°C 19.7°F-6.8°C 84% Calm Calm -- 30.56 in1034.9 mb - 0.00 in0.0 mm 0.00 in0.0 mm
07:00 PM 23.7°F-4.6°C 19.6°F-6.9°C 84% Calm Calm -- 30.56 in1034.9 mb - 0.00 in0.0 mm 0.00 in0.0 mm
07:35 PM 22.6°F-5.2°C 19.1°F-7.2°C 86% Calm Calm -- 30.57 in1035.2 mb - 0.00 in0.0 mm 0.00 in0.0 mm
07:40 PM 22.5°F-5.3°C 18.9°F-7.3°C 86% Calm Calm -- 30.57 in1035.2 mb - 0.00 in0.0 mm 0.00 in0.0 mm
07:45 PM 22.3°F-5.4°C 18.8°F-7.3°C 86% Calm Calm -- 30.57 in1035.2 mb - 0.00 in0.0 mm 0.00 in0.0 mm
07:50 PM 22.2°F-5.4°C 18.6°F-7.4°C 86% Calm Calm -- 30.57 in1035.2 mb - 0.00 in0.0 mm 0.00 in0.0 mm
07:55 PM 21.9°F-5.6°C 18.4°F-7.6°C 86% Calm Calm -- 30.57 in1035.2 mb - 0.00 in0.0 mm 0.00 in0.0 mm
08:00 PM 21.7°F-5.7°C 18.1°F-7.7°C 86% Calm Calm -- 30.57 in1035.2 mb - 0.00 in0.0 mm 0.00 in0.0 mm
08:10 PM 21.1°F-6.1°C 17.6°F-8.0°C 86% Calm Calm -- 30.57 in1035.2 mb - 0.00 in0.0 mm 0.00 in0.0 mm
08:15 PM 21.0°F-6.1°C 17.7°F-7.9°C 87% Calm Calm -- 30.57 in1035.2 mb - 0.00 in0.0 mm 0.00 in0.0 mm
08:20 PM 20.9°F-6.2°C 17.9°F-7.8°C 88% Calm Calm -- 30.57 in1035.2 mb - 0.00 in0.0 mm 0.00 in0.0 mm
08:25 PM 20.8°F-6.2°C 17.8°F-7.9°C 88% Calm Calm -- 30.57 in1035.2 mb - 0.00 in0.0 mm 0.00 in0.0 mm
08:30 PM 20.7°F-6.3°C 17.7°F-7.9°C 88% Calm Calm -- 30.57 in1035.2 mb - 0.00 in0.0 mm 0.00 in0.0 mm
08:35 PM 20.8°F-6.2°C 17.8°F-7.9°C 88% Calm Calm -- 30.57 in1035.2 mb - 0.00 in0.0 mm 0.00 in0.0 mm
08:40 PM 20.6°F-6.3°C 17.6°F-8.0°C 88% Calm Calm -- 30.57 in1035.2 mb - 0.00 in0.0 mm 0.00 in0.0 mm
08:45 PM 20.5°F-6.4°C 17.5°F-8.1°C 88% Calm Calm -- 30.58 in1035.6 mb - 0.00 in0.0 mm 0.00 in0.0 mm
08:50 PM 20.2°F-6.6°C 17.2°F-8.2°C 88% Calm Calm -- 30.58 in1035.6 mb - 0.00 in0.0 mm 0.00 in0.0 mm
08:55 PM 20.0°F-6.7°C 17.1°F-8.3°C 88% Calm Calm -- 30.58 in1035.6 mb - 0.00 in0.0 mm 0.00 in0.0 mm
09:00 PM 19.9°F-6.7°C 17.2°F-8.2°C 89% Calm Calm -- 30.58 in1035.6 mb - 0.00 in0.0 mm 0.00 in0.0 mm
09:10 PM 19.6°F-6.9°C 16.6°F-8.6°C 88% Calm Calm -- 30.58 in1035.6 mb - 0.00 in0.0 mm 0.00 in0.0 mm
09:15 PM 19.4°F-7.0°C 16.5°F-8.6°C 88% Calm Calm -- 30.58 in1035.6 mb - 0.00 in0.0 mm 0.00 in0.0 mm
09:20 PM 19.3°F-7.1°C 16.6°F-8.6°C 89% Calm Calm -- 30.58 in1035.6 mb - 0.00 in0.0 mm 0.00 in0.0 mm
09:25 PM 19.1°F-7.2°C 16.4°F-8.7°C 89% Calm Calm -- 30.58 in1035.6 mb - 0.00 in0.0 mm 0.00 in0.0 mm
09:30 PM 19.0°F-7.2°C 16.3°F-8.7°C 89% Calm Calm -- 30.58 in1035.6 mb - 0.00 in0.0 mm 0.00 in0.0 mm
09:35 PM 18.8°F-7.3°C 16.1°F-8.8°C 89% Calm Calm -- 30.58 in1035.6 mb - 0.00 in0.0 mm 0.00 in0.0 mm
09:40 PM 18.8°F-7.3°C 16.4°F-8.7°C 90% 1.2 mph S1.9 kmh S 3.5 mph5.6 kmh 30.58 in1035.6 mb - 0.00 in0.0 mm 0.00 in0.0 mm
09:45 PM 18.8°F-7.3°C 16.4°F-8.7°C 90% 1.2 mph S1.9 kmh S 2.3 mph3.7 kmh 30.58 in1035.6 mb - 0.00 in0.0 mm 0.00 in0.0 mm
09:50 PM 18.8°F-7.3°C 16.4°F-8.7°C 90% 1.2 mph S1.9 kmh S 2.3 mph3.7 kmh 30.58 in1035.6 mb - 0.00 in0.0 mm 0.00 in0.0 mm
09:55 PM 18.9°F-7.3°C 16.5°F-8.6°C 90% Calm Calm -- 30.58 in1035.6 mb - 0.00 in0.0 mm 0.00 in0.0 mm
10:00 PM 18.9°F-7.3°C 16.5°F-8.6°C 90% Calm Calm -- 30.58 in1035.6 mb - 0.00 in0.0 mm 0.00 in0.0 mm
10:10 PM 18.7°F-7.4°C 16.3°F-8.7°C 90% Calm Calm -- 30.58 in1035.6 mb - 0.00 in0.0 mm 0.00 in0.0 mm
10:15 PM 18.6°F-7.4°C 16.2°F-8.8°C 90% Calm Calm -- 30.59 in1035.9 mb - 0.00 in0.0 mm 0.00 in0.0 mm
10:20 PM 18.7°F-7.4°C 16.3°F-8.7°C 90% Calm Calm 2.3 mph3.7 kmh 30.59 in1035.9 mb - 0.00 in0.0 mm 0.00 in0.0 mm
10:25 PM 18.7°F-7.4°C 16.3°F-8.7°C 90% 1.2 mph S1.9 kmh S 1.2 mph1.9 kmh 30.59 in1035.9 mb - 0.00 in0.0 mm 0.00 in0.0 mm
10:30 PM 18.8°F-7.3°C 16.4°F-8.7°C 90% 1.2 mph S1.9 kmh S 2.3 mph3.7 kmh 30.58 in1035.6 mb - 0.00 in0.0 mm 0.00 in0.0 mm
10:35 PM 18.8°F-7.3°C 16.4°F-8.7°C 90% 2.3 mph SSE3.7 kmh SSE 3.5 mph5.6 kmh 30.58 in1035.6 mb - 0.00 in0.0 mm 0.00 in0.0 mm
10:40 PM 19.0°F-7.2°C 16.8°F-8.4°C 91% 1.2 mph SW1.9 kmh SW 3.5 mph5.6 kmh 30.58 in1035.6 mb - 0.00 in0.0 mm 0.00 in0.0 mm
10:45 PM 19.0°F-7.2°C 16.6°F-8.6°C 90% Calm Calm -- 30.58 in1035.6 mb - 0.00 in0.0 mm 0.00 in0.0 mm
10:50 PM 19.0°F-7.2°C 16.6°F-8.6°C 90% Calm Calm 2.3 mph3.7 kmh 30.58 in1035.6 mb - 0.00 in0.0 mm 0.00 in0.0 mm
10:55 PM 19.0°F-7.2°C 16.6°F-8.6°C 90% Calm Calm -- 30.59 in1035.9 mb - 0.00 in0.0 mm 0.00 in0.0 mm
11:00 PM 19.0°F-7.2°C 16.6°F-8.6°C 90% Calm Calm -- 30.59 in1035.9 mb - 0.00 in0.0 mm 0.00 in0.0 mm
11:10 PM 19.2°F-7.1°C 17.0°F-8.3°C 91% Calm Calm -- 30.59 in1035.9 mb - 0.00 in0.0 mm 0.00 in0.0 mm
11:15 PM 19.2°F-7.1°C 16.7°F-8.5°C 90% Calm Calm -- 30.59 in1035.9 mb - 0.00 in0.0 mm 0.00 in0.0 mm
11:20 PM 19.1°F-7.2°C 16.7°F-8.5°C 90% Calm Calm -- 30.59 in1035.9 mb - 0.00 in0.0 mm 0.00 in0.0 mm
11:25 PM 18.9°F-7.3°C 16.2°F-8.8°C 89% Calm Calm -- 30.59 in1035.9 mb - 0.00 in0.0 mm 0.00 in0.0 mm
11:30 PM 18.7°F-7.4°C 16.0°F-8.9°C 89% Calm Calm -- 30.59 in1035.9 mb - 0.00 in0.0 mm 0.00 in0.0 mm
11:35 PM 18.4°F-7.6°C 15.7°F-9.1°C 89% Calm Calm -- 30.59 in1035.9 mb - 0.00 in0.0 mm 0.00 in0.0 mm
11:40 PM 18.3°F-7.6°C 15.8°F-9.0°C 90% Calm Calm -- 30.59 in1035.9 mb - 0.00 in0.0 mm 0.00 in0.0 mm
11:45 PM 18.2°F-7.7°C 15.8°F-9.0°C 90% Calm Calm -- 30.59 in1035.9 mb - 0.00 in0.0 mm 0.00 in0.0 mm
11:50 PM 18.1°F-7.7°C 15.7°F-9.1°C 90% Calm Calm -- 30.59 in1035.9 mb - 0.00 in0.0 mm 0.00 in0.0 mm
11:55 PM 17.9°F-7.8°C 15.2°F-9.3°C 89% Calm Calm -- 30.58 in1035.6 mb - 0.00 in0.0 mm 0.00 in0.0 mm